Time;durP1;ratioP1;P1;durP2;ratioP2;P2;SDS_P1;SDS_P2;PMS_P1;PMS_P2;Temp;Humidity;BMP_temperature;BMP_pressure;BME280_temperature;BME280_humidity;BME280_pressure;Samples;Min_cycle;Max_cycle;Signal;HPM_P1;HPM_P2
2023/12/24 00:00:25;;;;;;;25.10;7.35;;;8.70;99.90;;;;;;4932793;28;20531;-81
2023/12/24 00:02:50;;;;;;;28.80;7.88;;;8.70;99.90;;;;;;4973494;28;20508;-81
2023/12/24 00:05:16;;;;;;;21.50;6.50;;;8.70;99.90;;;;;;4941401;28;20047;-82
2023/12/24 00:07:41;;;;;;;22.83;7.97;;;8.70;99.90;;;;;;4941281;28;20031;-81
2023/12/24 00:10:07;;;;;;;25.60;8.05;;;8.70;99.90;;;;;;4957127;28;20130;-81
2023/12/24 00:12:33;;;;;;;25.38;7.88;;;8.60;99.90;;;;;;4955827;28;20031;-81
2023/12/24 00:15:00;;;;;;;25.13;7.68;;;8.70;99.90;;;;;;4940674;28;20070;-82
2023/12/24 00:17:25;;;;;;;26.73;8.55;;;8.70;99.90;;;;;;4941042;28;20038;-81
2023/12/24 00:19:51;;;;;;;26.20;7.47;;;8.70;99.90;;;;;;4957029;28;20043;-82
2023/12/24 00:22:17;;;;;;;22.67;6.90;;;8.70;99.90;;;;;;4940188;28;20042;-82
2023/12/24 00:24:43;;;;;;;18.27;7.03;;;8.60;99.90;;;;;;4932641;28;20050;-82
2023/12/24 00:27:09;;;;;;;20.65;7.07;;;8.70;99.90;;;;;;4955740;28;20075;-82
2023/12/24 00:29:36;;;;;;;17.33;7.00;;;8.70;99.90;;;;;;4956769;28;20074;-81
2023/12/24 00:32:01;;;;;;;24.75;6.72;;;8.70;99.90;;;;;;4940823;28;20042;-82
2023/12/24 00:34:27;;;;;;;23.92;6.95;;;8.70;99.90;;;;;;4940531;28;20042;-81
2023/12/24 00:36:52;;;;;;;24.85;7.40;;;8.70;99.90;;;;;;4940632;28;20473;-81
2023/12/24 00:39:18;;;;;;;24.00;6.90;;;8.70;99.90;;;;;;4940528;28;20133;-81
2023/12/24 00:41:43;;;;;;;27.13;6.88;;;8.70;99.90;;;;;;4921713;29;20043;-82
2023/12/24 00:44:09;;;;;;;18.23;6.25;;;8.70;99.90;;;;;;4937580;29;20043;-81
2023/12/24 00:46:34;;;;;;;20.77;6.60;;;8.70;99.90;;;;;;4953761;29;20522;-81
2023/12/24 00:49:00;;;;;;;24.35;6.57;;;8.70;99.90;;;;;;4953139;29;20078;-81
2023/12/24 00:51:25;;;;;;;23.98;6.72;;;8.70;99.90;;;;;;4960704;28;20035;-82
2023/12/24 00:53:51;;;;;;;21.55;6.03;;;8.80;99.90;;;;;;4940121;28;20035;-81
2023/12/24 00:56:17;;;;;;;21.73;6.97;;;8.70;99.90;;;;;;4940612;28;20089;-81
2023/12/24 00:58:42;;;;;;;20.20;6.03;;;8.80;99.90;;;;;;4955688;28;20046;-82
2023/12/24 01:01:08;;;;;;;21.58;7.35;;;8.70;99.90;;;;;;4943430;28;20085;-81
2023/12/24 01:03:33;;;;;;;20.25;6.40;;;8.80;99.90;;;;;;4955865;28;20047;-81
2023/12/24 01:05:59;;;;;;;22.92;6.07;;;8.80;99.90;;;;;;4947626;28;20074;-82
2023/12/24 01:08:24;;;;;;;22.98;7.28;;;8.80;99.90;;;;;;4956018;28;20395;-81
2023/12/24 01:10:50;;;;;;;20.27;6.32;;;8.80;99.90;;;;;;4939758;28;20039;-81
2023/12/24 01:13:18;;;;;;;24.02;7.38;;;8.80;99.90;;;;;;4955716;28;20405;-81
2023/12/24 01:15:46;;;;;;;17.80;5.25;;;8.80;99.90;;;;;;4940244;28;20387;-81
2023/12/24 01:18:12;;;;;;;20.25;5.30;;;8.90;99.90;;;;;;4955374;28;20050;-81
2023/12/24 01:20:38;;;;;;;18.92;4.60;;;8.80;99.90;;;;;;4963329;28;20042;-81
2023/12/24 01:23:04;;;;;;;27.20;5.72;;;8.90;99.90;;;;;;4955739;28;20085;-81
2023/12/24 01:25:29;;;;;;;15.20;4.82;;;8.80;99.90;;;;;;4940294;28;20043;-81
2023/12/24 01:27:55;;;;;;;15.20;4.18;;;8.90;99.90;;;;;;4956127;28;20043;-81
2023/12/24 01:30:21;;;;;;;15.98;4.70;;;8.90;99.90;;;;;;4955751;28;20089;-81
2023/12/24 01:32:46;;;;;;;17.95;4.47;;;8.80;99.90;;;;;;4955676;28;20039;-81
2023/12/24 01:35:12;;;;;;;19.13;5.35;;;8.90;99.90;;;;;;4936250;29;20383;-80
2023/12/24 01:37:37;;;;;;;19.42;4.80;;;8.90;99.90;;;;;;4936699;29;20079;-81
2023/12/24 01:40:03;;;;;;;18.02;4.30;;;8.90;99.90;;;;;;4921007;29;20069;-81
2023/12/24 01:42:29;;;;;;;21.75;5.70;;;8.90;99.90;;;;;;4937768;28;20046;-81
2023/12/24 01:44:54;;;;;;;22.30;6.53;;;8.90;99.90;;;;;;4971863;28;20130;-82
2023/12/24 01:47:20;;;;;;;14.32;4.45;;;8.80;99.90;;;;;;4954986;28;20042;-82
2023/12/24 01:49:51;;;;;;;19.83;6.03;;;8.90;99.90;;;;;;4945704;28;20089;-82
2023/12/24 01:52:17;;;;;;;17.85;5.38;;;8.80;99.90;;;;;;4952351;28;20097;-81
2023/12/24 01:54:46;;;;;;;22.45;6.28;;;8.80;99.90;;;;;;4939581;28;20130;-82
2023/12/24 01:57:12;;;;;;;17.38;6.72;;;8.80;99.90;;;;;;4939663;28;20039;-81
2023/12/24 01:59:39;;;;;;;20.45;6.25;;;8.80;99.90;;;;;;4955992;28;20442;-82
2023/12/24 02:02:04;;;;;;;25.60;8.27;;;8.80;99.90;;;;;;4938790;28;20129;-81
2023/12/24 02:04:32;;;;;;;23.70;8.57;;;8.80;99.90;;;;;;4931321;28;20592;-81
2023/12/24 02:06:57;;;;;;;20.92;8.18;;;8.90;99.90;;;;;;4952432;28;20039;-81
2023/12/24 02:09:23;;;;;;;19.48;8.63;;;8.80;99.90;;;;;;4936259;29;20520;-81
2023/12/24 02:11:48;;;;;;;24.40;9.48;;;8.80;99.90;;;;;;4932410;28;20043;-81
2023/12/24 02:14:14;;;;;;;25.95;10.13;;;8.80;99.90;;;;;;4941728;28;20039;-81
2023/12/24 02:16:41;;;;;;;23.10;9.52;;;8.80;99.90;;;;;;4956705;28;20078;-81
2023/12/24 02:19:14;;;;;;;21.45;9.70;;;8.80;99.90;;;;;;4975257;28;20045;-81
2023/12/24 02:21:39;;;;;;;23.02;11.27;;;8.90;99.90;;;;;;4959102;28;20043;-80
2023/12/24 02:24:05;;;;;;;26.45;9.77;;;8.80;99.90;;;;;;4942850;28;20054;-81
2023/12/24 02:26:37;;;;;;;20.20;9.00;;;8.80;99.90;;;;;;4959006;28;20038;-80
2023/12/24 02:29:11;;;;;;;21.90;9.68;;;8.80;99.90;;;;;;4959050;28;20058;-80
2023/12/24 02:31:41;;;;;;;19.98;9.70;;;8.80;99.90;;;;;;4974283;28;20050;-81
2023/12/24 02:34:09;;;;;;;18.42;10.88;;;8.80;99.90;;;;;;4942542;28;20117;-81
2023/12/24 02:36:35;;;;;;;22.83;10.80;;;8.80;99.90;;;;;;4942823;28;20043;-81
2023/12/24 02:39:01;;;;;;;22.17;11.65;;;8.80;99.90;;;;;;4958832;28;20051;-81
2023/12/24 02:41:26;;;;;;;17.20;10.80;;;8.80;99.90;;;;;;4958565;28;20328;-80
2023/12/24 02:43:52;;;;;;;24.17;13.00;;;8.80;99.90;;;;;;4941793;28;20129;-80
2023/12/24 02:46:17;;;;;;;19.67;11.93;;;8.80;99.90;;;;;;4958888;28;20046;-81
2023/12/24 02:48:43;;;;;;;28.05;12.90;;;8.80;99.90;;;;;;4971433;28;20047;-80
2023/12/24 02:51:08;;;;;;;28.80;14.00;;;8.70;99.90;;;;;;4958479;28;20049;-80
2023/12/24 02:53:34;;;;;;;25.48;13.32;;;8.80;99.90;;;;;;4958487;28;20039;-81
2023/12/24 02:56:00;;;;;;;24.13;13.65;;;8.80;99.90;;;;;;4936324;28;20082;-81
2023/12/24 02:58:25;;;;;;;31.00;16.90;;;8.80;99.90;;;;;;4927343;29;20043;-81
2023/12/24 03:00:51;;;;;;;30.85;16.52;;;8.80;99.90;;;;;;4942869;28;20398;-80
2023/12/24 03:03:16;;;;;;;24.67;14.23;;;8.80;99.90;;;;;;4942282;28;20516;-81
2023/12/24 03:05:42;;;;;;;30.60;16.25;;;8.80;99.90;;;;;;4958466;28;20473;-81
2023/12/24 03:08:08;;;;;;;26.02;15.15;;;8.80;99.90;;;;;;4973655;28;20038;-81
2023/12/24 03:10:33;;;;;;;25.95;14.82;;;8.80;99.90;;;;;;4957454;28;20046;-81
2023/12/24 03:12:59;;;;;;;25.75;14.65;;;8.80;99.90;;;;;;4974440;28;20047;-81
2023/12/24 03:15:24;;;;;;;23.95;13.65;;;8.80;99.90;;;;;;4958293;28;20046;-81
2023/12/24 03:17:50;;;;;;;28.20;16.38;;;8.80;99.90;;;;;;4958287;28;20514;-81
2023/12/24 03:20:15;;;;;;;25.30;14.90;;;8.80;99.90;;;;;;4974283;28;20133;-81
2023/12/24 03:22:41;;;;;;;26.10;14.88;;;8.80;99.90;;;;;;4957214;28;20089;-80
2023/12/24 03:25:07;;;;;;;19.55;14.00;;;8.80;99.90;;;;;;4940730;28;20062;-80
2023/12/24 03:27:32;;;;;;;24.35;14.90;;;8.90;99.90;;;;;;4941990;28;20069;-80
2023/12/24 03:29:58;;;;;;;22.95;13.65;;;8.90;99.90;;;;;;4958157;28;20042;-80
2023/12/24 03:32:23;;;;;;;25.80;15.07;;;8.90;99.90;;;;;;4957576;28;20125;-80
2023/12/24 03:34:49;;;;;;;23.48;13.70;;;8.90;99.90;;;;;;4973632;28;20042;-80
2023/12/24 03:37:14;;;;;;;19.85;11.48;;;8.90;99.90;;;;;;4957222;28;20046;-81
2023/12/24 03:39:40;;;;;;;19.98;12.23;;;8.90;99.90;;;;;;4957993;28;20050;-80
2023/12/24 03:42:06;;;;;;;16.35;10.88;;;8.90;99.90;;;;;;4957585;28;20045;-81
2023/12/24 03:44:31;;;;;;;18.67;11.48;;;8.90;99.90;;;;;;4957432;28;20081;-80
2023/12/24 03:46:57;;;;;;;20.92;12.25;;;8.90;99.90;;;;;;4973170;28;20070;-80
2023/12/24 03:49:22;;;;;;;21.40;10.75;;;9.00;99.90;;;;;;4955676;28;20035;-81
2023/12/24 03:51:48;;;;;;;14.98;9.27;;;8.90;99.90;;;;;;4957210;28;20109;-81
2023/12/24 03:54:13;;;;;;;16.02;9.77;;;9.00;99.90;;;;;;4973516;28;20486;-80
2023/12/24 03:56:41;;;;;;;12.75;9.02;;;9.00;99.90;;;;;;4957425;28;20046;-81
2023/12/24 03:59:06;;;;;;;14.65;9.40;;;8.90;99.90;;;;;;4957453;28;20050;-81
2023/12/24 04:01:32;;;;;;;13.60;9.50;;;9.00;99.90;;;;;;4972514;28;20204;-81
2023/12/24 04:03:57;;;;;;;12.70;9.05;;;8.90;99.90;;;;;;4972780;28;20039;-80
2023/12/24 04:06:23;;;;;;;13.13;9.63;;;9.00;99.90;;;;;;4941264;28;20074;-80
2023/12/24 04:08:49;;;;;;;14.05;9.63;;;9.00;99.90;;;;;;4941297;28;20039;-80
2023/12/24 04:11:16;;;;;;;13.77;9.65;;;9.00;99.90;;;;;;4941175;28;20055;-80
2023/12/24 04:13:41;;;;;;;14.63;9.43;;;9.10;99.90;;;;;;4972825;28;20039;-81
2023/12/24 04:16:07;;;;;;;13.93;9.15;;;9.00;99.90;;;;;;4972619;28;20050;-81
2023/12/24 04:18:34;;;;;;;12.45;9.57;;;9.00;99.90;;;;;;4948249;29;20043;-81
2023/12/24 04:20:59;;;;;;;13.13;8.40;;;9.00;99.90;;;;;;4958572;28;20530;-81
2023/12/24 04:23:25;;;;;;;12.73;8.60;;;9.00;99.90;;;;;;4956644;28;20039;-81
2023/12/24 04:25:51;;;;;;;11.90;8.80;;;9.10;99.90;;;;;;4957095;28;20078;-80
2023/12/24 04:28:40;;;;;;;12.93;8.50;;;9.10;99.90;;;;;;5014661;23;20049;-77
2023/12/24 04:31:42;;;;;;;12.65;8.50;;;9.00;99.90;;;;;;4997525;28;20263;-78
2023/12/24 04:34:30;;;;;;;13.95;8.73;;;9.10;99.90;;;;;;4998956;28;20041;-77
2023/12/24 04:38:02;;;;;;;16.27;9.07;;;9.10;99.90;;;;;;5004101;28;20045;-77
2023/12/24 04:41:08;;;;;;;12.30;8.27;;;9.10;99.90;;;;;;4981455;28;20054;-78
2023/12/24 04:44:17;;;;;;;10.82;8.07;;;9.20;99.90;;;;;;4991208;28;20077;-77
2023/12/24 04:47:13;;;;;;;15.00;7.93;;;9.20;99.90;;;;;;4992314;28;20045;-78
2023/12/24 04:50:27;;;;;;;10.07;7.25;;;9.30;99.90;;;;;;4991493;28;20042;-78
2023/12/24 04:53:18;;;;;;;11.07;7.72;;;9.30;99.90;;;;;;4958370;28;20054;-78
2023/12/24 04:56:08;;;;;;;;;;;;;;;;;;;;;
2023/12/24 04:59:21;;;;;;;8.88;6.70;;;9.30;99.90;;;;;;5010573;28;20133;-78
2023/12/24 05:02:06;;;;;;;12.45;8.35;;;9.30;99.90;;;;;;5011512;28;20302;-78
2023/12/24 05:04:55;;;;;;;10.73;6.97;;;9.30;99.90;;;;;;5003719;28;20442;-78
2023/12/24 05:08:22;;;;;;;;;;;;;;;;;;;;;
2023/12/24 05:11:28;;;;;;;10.43;6.43;;;9.40;99.90;;;;;;5011129;28;20042;-78
2023/12/24 05:14:14;;;;;;;8.35;6.03;;;9.40;99.90;;;;;;4994620;28;20399;-78
2023/12/24 05:20:32;;;;;;;9.55;6.57;;;9.40;99.90;;;;;;4983510;28;20049;-77
2023/12/24 05:23:19;;;;;;;10.07;6.85;;;9.50;99.90;;;;;;4976453;28;20454;-77
2023/12/24 05:28:57;;;;;;;16.75;8.70;;;9.40;99.90;;;;;;4989764;23;20046;-83
2023/12/24 05:31:22;;;;;;;13.60;7.85;;;9.40;99.90;;;;;;4996764;28;20041;-80
2023/12/24 05:33:48;;;;;;;16.83;8.65;;;9.40;99.90;;;;;;4997735;28;20086;-80
2023/12/24 05:36:14;;;;;;;12.70;7.78;;;9.50;99.90;;;;;;4994185;28;20042;-81
2023/12/24 05:38:40;;;;;;;12.70;7.95;;;9.50;99.90;;;;;;4995723;28;20036;-80
2023/12/24 05:41:10;;;;;;;16.33;8.70;;;9.60;99.90;;;;;;4983214;28;20175;-80
2023/12/24 05:43:36;;;;;;;15.02;8.80;;;9.60;99.90;;;;;;4978320;28;20383;-81
2023/12/24 05:46:03;;;;;;;18.30;10.50;;;9.60;99.90;;;;;;4978457;28;20045;-80
2023/12/24 05:48:29;;;;;;;16.35;10.27;;;9.50;99.90;;;;;;4975330;28;20133;-81
2023/12/24 05:50:54;;;;;;;18.75;10.70;;;9.60;99.90;;;;;;4981364;28;20129;-80
2023/12/24 05:53:20;;;;;;;21.88;12.15;;;9.60;99.90;;;;;;4982155;28;20038;-80
2023/12/24 05:55:45;;;;;;;21.70;12.10;;;9.60;99.90;;;;;;4998422;28;20029;-80
2023/12/24 05:58:11;;;;;;;21.85;12.18;;;9.60;99.90;;;;;;4997939;28;20100;-80
2023/12/24 06:00:36;;;;;;;24.95;12.82;;;9.60;99.90;;;;;;4978249;28;20451;-80
2023/12/24 06:03:03;;;;;;;33.03;14.27;;;9.60;99.90;;;;;;4980380;28;20555;-80
2023/12/24 06:05:28;;;;;;;24.17;13.98;;;9.60;99.90;;;;;;4998152;28;20038;-80
2023/12/24 06:07:54;;;;;;;27.85;14.75;;;9.70;99.90;;;;;;4998122;28;20100;-81
2023/12/24 06:10:19;;;;;;;28.33;14.70;;;9.70;99.90;;;;;;4998189;28;20034;-80
2023/12/24 06:12:51;;;;;;;29.73;15.27;;;9.60;99.90;;;;;;4989872;28;20030;-80
2023/12/24 06:15:17;;;;;;;28.08;15.70;;;9.70;99.90;;;;;;4990977;28;20042;-80
2023/12/24 06:17:42;;;;;;;29.75;15.77;;;9.70;99.90;;;;;;4996667;28;20095;-81
2023/12/24 06:20:09;;;;;;;31.50;15.40;;;9.70;99.90;;;;;;4974932;28;20053;-81
2023/12/24 06:22:34;;;;;;;35.05;16.77;;;9.70;99.90;;;;;;4966269;28;20497;-80
2023/12/24 06:25:00;;;;;;;30.42;16.60;;;9.80;99.90;;;;;;4971591;28;20038;-82
2023/12/24 06:27:26;;;;;;;32.83;16.30;;;9.70;99.90;;;;;;4996327;28;20099;-81
2023/12/24 06:29:51;;;;;;;35.58;16.95;;;9.70;99.90;;;;;;4997475;28;20127;-80
2023/12/24 06:32:17;;;;;;;31.55;15.18;;;9.80;99.90;;;;;;4989297;28;20041;-80
2023/12/24 06:34:42;;;;;;;32.05;16.48;;;9.80;99.90;;;;;;4997520;28;20042;-82
2023/12/24 06:37:08;;;;;;;35.53;15.75;;;9.80;99.90;;;;;;4997787;28;20496;-80
2023/12/24 06:39:34;;;;;;;31.60;15.18;;;9.80;99.90;;;;;;4997721;28;20447;-80
2023/12/24 06:41:59;;;;;;;33.40;15.65;;;9.80;99.90;;;;;;4995824;28;20447;-81
2023/12/24 06:44:25;;;;;;;38.35;16.08;;;9.80;99.90;;;;;;4997391;28;20397;-81
2023/12/24 06:46:50;;;;;;;38.65;15.68;;;9.80;99.90;;;;;;4981447;28;20523;-80
2023/12/24 06:49:16;;;;;;;32.60;15.27;;;9.80;99.90;;;;;;4997409;28;20060;-80
2023/12/24 06:51:41;;;;;;;31.55;12.40;;;9.80;99.90;;;;;;4975603;28;20405;-80
2023/12/24 06:54:07;;;;;;;32.17;12.38;;;9.80;99.90;;;;;;4961759;28;20481;-80
2023/12/24 06:56:32;;;;;;;35.88;13.88;;;9.90;99.90;;;;;;4970058;28;20041;-81
2023/12/24 06:58:58;;;;;;;31.95;12.00;;;9.90;99.90;;;;;;4997458;28;20041;-80
2023/12/24 07:01:23;;;;;;;41.83;14.75;;;9.90;99.90;;;;;;4979090;28;20058;-81
2023/12/24 07:03:49;;;;;;;35.20;14.68;;;9.90;99.90;;;;;;4974307;28;20035;-82
2023/12/24 07:06:14;;;;;;;40.80;14.82;;;10.00;99.90;;;;;;4976803;28;20046;-80
2023/12/24 07:08:40;;;;;;;38.13;15.48;;;9.90;99.90;;;;;;4981021;28;20095;-81
2023/12/24 07:11:06;;;;;;;37.95;15.45;;;9.90;99.90;;;;;;4996604;28;20053;-80
2023/12/24 07:13:31;;;;;;;41.58;16.30;;;10.00;99.90;;;;;;4996593;28;20033;-80
2023/12/24 07:15:57;;;;;;;41.22;16.77;;;10.00;99.90;;;;;;4997014;28;20135;-80
2023/12/24 07:18:23;;;;;;;32.30;16.05;;;10.00;99.90;;;;;;4978143;28;20049;-81
2023/12/24 07:20:49;;;;;;;37.83;16.65;;;10.00;99.90;;;;;;4979104;28;20034;-80
2023/12/24 07:23:14;;;;;;;37.38;16.45;;;10.00;99.90;;;;;;4963085;28;20557;-81
2023/12/24 07:25:40;;;;;;;39.58;16.15;;;10.00;99.90;;;;;;4965087;28;20124;-81
2023/12/24 07:28:05;;;;;;;44.53;16.00;;;10.10;99.90;;;;;;4997048;28;20084;-81
2023/12/24 07:30:31;;;;;;;46.03;16.55;;;10.00;99.90;;;;;;4996638;28;20069;-80
2023/12/24 07:32:57;;;;;;;48.95;15.38;;;10.10;99.90;;;;;;4994950;28;20130;-81
2023/12/24 07:35:23;;;;;;;40.22;13.73;;;10.10;99.90;;;;;;4992461;28;20092;-81
2023/12/24 07:37:48;;;;;;;30.85;13.10;;;10.10;99.90;;;;;;4995969;28;20033;-81
2023/12/24 07:40:14;;;;;;;33.20;13.02;;;10.10;99.90;;;;;;4996956;28;20041;-80
2023/12/24 07:42:39;;;;;;;31.35;10.88;;;10.10;99.90;;;;;;4983698;28;20042;-80
2023/12/24 07:45:05;;;;;;;26.92;9.75;;;10.20;99.90;;;;;;4960830;28;20038;-80
2023/12/24 07:47:31;;;;;;;33.20;10.05;;;10.20;99.90;;;;;;4992722;28;20041;-80
2023/12/24 07:49:57;;;;;;;38.33;11.57;;;10.20;99.90;;;;;;4988100;28;20041;-80
2023/12/24 07:52:22;;;;;;;31.77;10.27;;;10.20;99.90;;;;;;4996832;28;20077;-81
2023/12/24 07:54:48;;;;;;;32.33;10.13;;;10.20;99.90;;;;;;4988563;28;20513;-83
2023/12/24 07:57:14;;;;;;;31.30;9.90;;;10.20;99.90;;;;;;4987184;28;20049;-82
2023/12/24 07:59:40;;;;;;;36.00;10.63;;;10.20;99.90;;;;;;4973662;28;20038;-83
2023/12/24 08:02:06;;;;;;;38.15;11.05;;;10.30;99.90;;;;;;4995269;28;20049;-82
2023/12/24 08:04:32;;;;;;;33.95;10.05;;;10.30;99.90;;;;;;4998151;28;20396;-82
2023/12/24 08:06:57;;;;;;;34.35;9.90;;;10.30;99.90;;;;;;4995525;28;20041;-83
2023/12/24 08:09:23;;;;;;;32.28;9.40;;;10.30;99.90;;;;;;4996021;28;20038;-83
2023/12/24 08:11:49;;;;;;;33.78;9.55;;;10.30;99.90;;;;;;4995123;28;20038;-82
2023/12/24 08:14:14;;;;;;;34.78;10.93;;;10.30;99.90;;;;;;4994181;28;20038;-83
2023/12/24 08:16:43;;;;;;;33.05;10.50;;;10.40;99.90;;;;;;4996025;28;20033;-85
2023/12/24 08:19:08;;;;;;;37.03;11.15;;;10.30;99.90;;;;;;4995950;28;20037;-83
2023/12/24 08:21:34;;;;;;;29.52;9.75;;;10.40;99.90;;;;;;4984747;28;20092;-84
2023/12/24 08:23:59;;;;;;;28.45;9.02;;;10.40;99.90;;;;;;4993573;28;20571;-84
2023/12/24 08:26:26;;;;;;;35.75;10.95;;;10.40;99.90;;;;;;4990506;28;20036;-84
2023/12/24 08:28:51;;;;;;;31.55;9.63;;;10.40;99.90;;;;;;4983792;28;20038;-83
2023/12/24 08:31:17;;;;;;;27.95;9.65;;;10.40;99.90;;;;;;4987139;28;20400;-84
2023/12/24 08:33:43;;;;;;;28.63;8.63;;;10.50;99.90;;;;;;4993987;28;20049;-84
2023/12/24 08:36:10;;;;;;;32.33;8.77;;;10.40;99.90;;;;;;4990005;28;20046;-84
2023/12/24 08:38:35;;;;;;;30.58;9.27;;;10.50;99.90;;;;;;4985970;28;20042;-82
2023/12/24 08:41:01;;;;;;;22.48;7.90;;;10.50;99.90;;;;;;4978458;28;20053;-83
2023/12/24 08:43:27;;;;;;;23.58;7.97;;;10.50;99.90;;;;;;4992610;28;20042;-81
2023/12/24 08:45:52;;;;;;;25.13;7.78;;;10.50;99.90;;;;;;4994293;28;20515;-82
2023/12/24 08:48:18;;;;;;;28.20;8.15;;;10.50;99.90;;;;;;4970496;28;20057;-80
2023/12/24 08:50:44;;;;;;;28.63;9.23;;;10.50;99.90;;;;;;4988791;28;20046;-79
2023/12/24 08:53:10;;;;;;;28.17;8.48;;;10.60;99.90;;;;;;4977431;28;20603;-79
2023/12/24 08:55:36;;;;;;;22.77;8.82;;;10.60;99.90;;;;;;4993939;28;20045;-80
2023/12/24 08:58:01;;;;;;;29.02;9.57;;;10.60;99.90;;;;;;4995187;28;20121;-80
2023/12/24 09:00:27;;;;;;;31.50;10.32;;;10.60;99.90;;;;;;4991824;28;20034;-79
2023/12/24 09:02:52;;;;;;;25.75;9.25;;;10.60;99.90;;;;;;4978059;28;20053;-80
2023/12/24 09:05:18;;;;;;;29.73;10.40;;;10.60;99.90;;;;;;4994728;28;20048;-80
2023/12/24 09:07:44;;;;;;;24.08;9.75;;;10.60;99.90;;;;;;4994829;28;20037;-80
2023/12/24 09:10:10;;;;;;;29.45;10.20;;;10.60;99.90;;;;;;4994404;28;20038;-80
2023/12/24 09:12:36;;;;;;;25.55;8.80;;;10.60;99.90;;;;;;4995212;28;20045;-80
2023/12/24 09:15:02;;;;;;;28.60;10.38;;;10.70;99.90;;;;;;4994826;28;20037;-80
2023/12/24 09:17:28;;;;;;;27.55;9.15;;;10.70;99.90;;;;;;4996337;28;20488;-84
2023/12/24 09:19:53;;;;;;;30.48;10.00;;;10.70;99.90;;;;;;4995971;28;20034;-84
2023/12/24 09:22:19;;;;;;;27.35;9.32;;;10.70;99.90;;;;;;4990825;28;20038;-79
2023/12/24 09:24:44;;;;;;;27.73;8.43;;;10.70;99.90;;;;;;4989525;28;20128;-87
2023/12/24 09:27:10;;;;;;;19.48;7.15;;;10.70;99.90;;;;;;4976169;28;20037;-80
2023/12/24 09:29:35;;;;;;;26.40;8.70;;;10.70;99.90;;;;;;4978292;28;20487;-82
2023/12/24 09:32:01;;;;;;;23.70;8.13;;;10.70;99.90;;;;;;4989097;28;20061;-82
2023/12/24 09:34:26;;;;;;;24.33;7.50;;;10.80;99.90;;;;;;4978558;28;20037;-84
2023/12/24 09:36:52;;;;;;;22.77;7.15;;;10.80;99.90;;;;;;4993897;28;20092;-83
2023/12/24 09:39:17;;;;;;;20.90;6.78;;;10.80;99.90;;;;;;4993850;28;20125;-84
2023/12/24 09:41:43;;;;;;;19.90;6.82;;;10.80;99.90;;;;;;4977275;28;20080;-84
2023/12/24 09:44:09;;;;;;;21.67;6.53;;;10.80;99.90;;;;;;4978879;28;20042;-80
2023/12/24 09:46:34;;;;;;;21.60;7.25;;;10.80;99.90;;;;;;4987727;28;20038;-81
2023/12/24 09:49:00;;;;;;;17.98;6.05;;;10.90;99.90;;;;;;4982204;28;20154;-82
2023/12/24 09:51:26;;;;;;;18.05;5.95;;;10.90;99.90;;;;;;4960146;28;20085;-79
2023/12/24 09:53:54;;;;;;;18.15;5.65;;;10.90;99.90;;;;;;4981238;28;20041;-81
2023/12/24 09:56:19;;;;;;;17.42;5.40;;;11.00;99.90;;;;;;4981952;28;20486;-81
2023/12/24 09:58:45;;;;;;;17.58;5.30;;;11.00;99.90;;;;;;4975506;28;20128;-83
2023/12/24 10:01:11;;;;;;;15.27;4.95;;;11.00;99.90;;;;;;4989438;28;20034;-81
2023/12/24 10:03:37;;;;;;;17.48;5.80;;;11.10;99.90;;;;;;4989272;28;20133;-81
2023/12/24 10:06:07;;;;;;;17.00;6.32;;;11.10;99.90;;;;;;4992725;28;20516;-81
2023/12/24 10:08:33;;;;;;;14.70;6.07;;;11.10;99.90;;;;;;4974403;28;20159;-84
2023/12/24 10:11:16;;;;;;;18.60;6.45;;;11.10;99.90;;;;;;4992078;28;20128;-80
2023/12/24 10:13:43;;;;;;;22.05;6.72;;;11.10;99.90;;;;;;4978272;28;20038;-80
2023/12/24 10:16:09;;;;;;;18.67;6.72;;;11.10;99.90;;;;;;4962459;28;20437;-80
2023/12/24 10:18:35;;;;;;;23.58;7.53;;;11.10;99.90;;;;;;4994907;28;20077;-83
2023/12/24 10:21:09;;;;;;;19.60;6.50;;;11.10;99.90;;;;;;4967512;28;20062;-83
2023/12/24 10:23:35;;;;;;;19.55;7.05;;;11.10;99.90;;;;;;4989874;28;20045;-85
2023/12/24 10:26:06;;;;;;;20.30;6.68;;;11.10;99.90;;;;;;4994316;28;20599;-83
2023/12/24 10:28:33;;;;;;;19.05;7.25;;;11.20;99.90;;;;;;4994546;28;20042;-80
2023/12/24 10:31:09;;;;;;;19.48;6.63;;;11.20;99.90;;;;;;4992060;28;20050;-80
2023/12/24 10:33:39;;;;;;;18.27;5.97;;;11.20;99.90;;;;;;4977207;28;20038;-81
2023/12/24 10:36:06;;;;;;;16.85;5.90;;;11.30;99.90;;;;;;4987507;28;20037;-82
2023/12/24 10:38:32;;;;;;;16.70;5.78;;;11.30;99.90;;;;;;4979278;28;20133;-82
2023/12/24 10:40:58;;;;;;;19.52;5.47;;;11.30;99.90;;;;;;4992638;28;20077;-83
2023/12/24 10:43:23;;;;;;;22.42;5.35;;;11.30;99.90;;;;;;4977144;28;20068;-82
2023/12/24 10:45:49;;;;;;;16.83;5.15;;;11.40;99.90;;;;;;4985511;28;20463;-87
2023/12/24 10:48:15;;;;;;;17.52;4.68;;;11.40;99.90;;;;;;4997806;28;20526;-79
2023/12/24 10:50:41;;;;;;;18.35;5.18;;;11.40;99.90;;;;;;4992875;28;20105;-82
2023/12/24 10:53:06;;;;;;;16.95;4.63;;;11.40;99.90;;;;;;4994512;28;20038;-81
2023/12/24 10:55:34;;;;;;;16.52;4.75;;;11.40;99.90;;;;;;4992581;28;20056;-80
2023/12/24 10:58:21;;;;;;;17.90;5.05;;;11.50;99.90;;;;;;4992331;28;20034;-83
2023/12/24 11:00:47;;;;;;;15.85;4.72;;;11.50;99.90;;;;;;4994246;28;20484;-82
2023/12/24 11:03:45;;;;;;;18.17;4.78;;;11.50;99.90;;;;;;4995958;28;20096;-80
2023/12/24 11:06:11;;;;;;;16.80;5.57;;;11.50;99.90;;;;;;4996172;28;20042;-80
2023/12/24 11:08:36;;;;;;;15.60;4.10;;;11.50;99.90;;;;;;4980694;28;20557;-82
2023/12/24 11:11:04;;;;;;;20.15;5.32;;;11.50;99.90;;;;;;4996676;28;20046;-80
2023/12/24 11:13:33;;;;;;;18.70;4.90;;;11.50;99.90;;;;;;4992310;28;20041;-82
2023/12/24 11:16:03;;;;;;;12.88;4.40;;;11.60;99.90;;;;;;4988102;28;20042;-80
2023/12/24 11:18:44;;;;;;;15.95;4.38;;;11.50;99.90;;;;;;4964324;28;20129;-82
2023/12/24 11:21:15;;;;;;;16.77;5.00;;;11.50;99.90;;;;;;4961478;28;20507;-81
2023/12/24 11:23:42;;;;;;;17.80;5.32;;;11.50;99.90;;;;;;4996482;28;20041;-81
2023/12/24 11:26:31;;;;;;;16.23;5.38;;;11.50;99.90;;;;;;4994914;28;20531;-81
2023/12/24 11:29:00;;;;;;;22.58;6.57;;;11.50;99.90;;;;;;4995677;28;20037;-81
2023/12/24 11:31:27;;;;;;;19.60;5.90;;;11.50;99.90;;;;;;4984748;23;20043;-74
2023/12/24 11:33:56;;;;;;;19.13;5.70;;;11.50;99.90;;;;;;4957326;28;20042;-76
2023/12/24 11:36:23;;;;;;;17.08;5.50;;;11.50;99.90;;;;;;4954685;28;20504;-75
2023/12/24 11:38:57;;;;;;;20.30;5.47;;;11.50;99.90;;;;;;4980141;28;20039;-75
2023/12/24 11:41:24;;;;;;;15.02;5.50;;;11.50;99.90;;;;;;4964971;28;20053;-75
2023/12/24 11:44:02;;;;;;;16.98;4.72;;;11.40;99.90;;;;;;4956668;28;20043;-75
2023/12/24 11:46:35;;;;;;;17.25;5.15;;;11.40;99.90;;;;;;4972448;28;20465;-75
2023/12/24 11:49:06;;;;;;;19.73;5.10;;;11.50;99.90;;;;;;4972158;28;20031;-75
2023/12/24 11:51:34;;;;;;;18.45;4.70;;;11.40;99.90;;;;;;4972788;28;20042;-75
2023/12/24 11:54:04;;;;;;;19.27;5.13;;;11.40;99.90;;;;;;4955343;28;20133;-75
2023/12/24 11:56:30;;;;;;;16.73;4.82;;;11.50;99.90;;;;;;4957149;28;20035;-75
2023/12/24 11:59:04;;;;;;;16.50;5.20;;;11.50;99.90;;;;;;4973092;28;20437;-75
2023/12/24 12:01:36;;;;;;;16.50;5.00;;;11.50;99.90;;;;;;4973499;28;20081;-75
2023/12/24 12:04:03;;;;;;;16.00;5.03;;;11.50;99.90;;;;;;4971468;28;20053;-75
2023/12/24 12:06:34;;;;;;;17.55;5.93;;;11.50;99.90;;;;;;4956057;28;20122;-75
2023/12/24 12:09:10;;;;;;;18.88;5.35;;;11.50;99.90;;;;;;4956778;28;20046;-76
2023/12/24 12:11:36;;;;;;;18.35;4.63;;;11.50;99.90;;;;;;4972863;28;20034;-75
2023/12/24 12:14:01;;;;;;;17.75;4.55;;;11.50;99.90;;;;;;4979042;28;20520;-74
2023/12/24 12:16:28;;;;;;;15.75;4.32;;;11.60;99.90;;;;;;4974565;28;20382;-75
2023/12/24 12:18:54;;;;;;;13.60;4.38;;;11.60;99.90;;;;;;4983946;28;20046;-75
2023/12/24 12:21:20;;;;;;;11.25;4.10;;;11.60;99.90;;;;;;4956926;28;20474;-75
2023/12/24 12:23:53;;;;;;;14.82;4.50;;;11.60;99.90;;;;;;4973810;28;20062;-74
2023/12/24 12:26:22;;;;;;;17.55;4.97;;;11.60;99.90;;;;;;4988842;28;20053;-74
2023/12/24 12:28:48;;;;;;;15.13;4.68;;;11.60;99.90;;;;;;4960150;28;20082;-73
2023/12/24 12:31:27;;;;;;;16.95;4.90;;;11.60;99.90;;;;;;4972641;28;20470;-74
2023/12/24 12:34:01;;;;;;;14.68;5.03;;;11.70;99.90;;;;;;4958055;28;20070;-74
2023/12/24 12:36:27;;;;;;;20.05;4.93;;;11.70;99.90;;;;;;4987089;28;20050;-74
2023/12/24 12:39:01;;;;;;;22.02;6.00;;;11.60;99.90;;;;;;4978350;28;20038;-74
2023/12/24 12:41:32;;;;;;;21.08;6.53;;;11.70;99.90;;;;;;4973478;28;20031;-74
2023/12/24 12:44:00;;;;;;;16.67;5.28;;;11.60;99.90;;;;;;4989174;28;20401;-74
2023/12/24 12:46:33;;;;;;;16.65;5.82;;;11.60;99.90;;;;;;4972740;28;20102;-74
2023/12/24 12:49:04;;;;;;;13.73;5.05;;;11.60;99.90;;;;;;4962881;28;20046;-74
2023/12/24 12:51:32;;;;;;;21.85;6.10;;;11.60;99.90;;;;;;4973943;28;20043;-74
2023/12/24 12:54:05;;;;;;;20.83;6.07;;;11.60;99.90;;;;;;4979130;28;20061;-74